createdAt,value
2022-11-30T13:30:03.091Z,5.35
2022-11-30T13:32:57.485Z,5.57
2022-11-30T13:35:43.723Z,5.35
2022-11-30T13:38:37.382Z,5.30
2022-11-30T13:41:08.892Z,4.28
2022-11-30T13:43:42.808Z,4.32
2022-11-30T13:46:21.425Z,5.15
2022-11-30T13:48:50.895Z,11.13
2022-11-30T13:51:37.783Z,8.80
2022-11-30T13:54:43.772Z,9.45
2022-11-30T13:57:35.743Z,9.23
2022-11-30T14:00:42.664Z,8.93
2022-11-30T14:03:25.022Z,8.90
2022-11-30T14:05:54.318Z,8.77
2022-11-30T14:08:41.374Z,8.20
2022-11-30T14:11:39.325Z,8.15
2022-11-30T14:14:45.638Z,6.60
2022-11-30T14:17:27.462Z,6.63
2022-11-30T14:20:03.727Z,6.80
2022-11-30T14:22:32.873Z,8.47
2022-11-30T14:25:02.664Z,7.40
2022-11-30T14:27:32.472Z,7.07
2022-11-30T14:30:04.701Z,6.80
2022-11-30T14:32:39.138Z,5.67
2022-11-30T14:35:13.368Z,6.30
2022-11-30T14:37:45.990Z,7.10
2022-11-30T14:40:20.209Z,6.87
2022-11-30T14:42:51.554Z,6.00
2022-11-30T14:45:24.435Z,6.43
2022-11-30T14:47:54.878Z,6.17
2022-11-30T14:50:27.250Z,6.73
2022-11-30T14:53:10.139Z,6.70
2022-11-30T14:55:46.624Z,6.40
2022-11-30T14:58:23.479Z,6.20
2022-11-30T15:00:52.415Z,6.50
2022-11-30T15:03:26.426Z,7.00
2022-11-30T15:05:59.225Z,5.53
2022-11-30T15:08:34.147Z,6.33
2022-11-30T15:11:06.450Z,6.27
2022-11-30T15:13:35.842Z,5.77
2022-11-30T15:16:11.594Z,5.63
2022-11-30T15:18:41.184Z,5.20
2022-11-30T15:21:17.403Z,5.80
2022-11-30T15:23:50.858Z,5.60
2022-11-30T15:26:23.991Z,5.80
2022-11-30T15:28:58.411Z,6.37
2022-11-30T15:31:35.117Z,6.10
2022-11-30T15:34:04.593Z,6.23
2022-11-30T15:36:38.248Z,5.43
2022-11-30T15:39:09.257Z,6.80
2022-11-30T15:41:38.096Z,5.53
2022-11-30T15:44:24.564Z,6.80
2022-11-30T15:46:59.681Z,11.02
2022-11-30T15:49:29.670Z,9.73
2022-11-30T15:52:09.099Z,9.20
2022-11-30T15:54:45.196Z,10.37
2022-11-30T15:57:15.135Z,8.47
2022-11-30T15:59:44.425Z,8.13
2022-11-30T16:02:28.654Z,7.77
2022-11-30T16:05:23.373Z,7.50
2022-11-30T16:07:55.955Z,8.43
2022-11-30T16:10:26.884Z,7.53
2022-11-30T16:12:56.587Z,7.97
2022-11-30T16:15:27.335Z,6.70
2022-11-30T16:18:00.083Z,6.60
2022-11-30T16:20:29.861Z,7.20
2022-11-30T16:23:05.572Z,9.13
2022-11-30T16:25:34.672Z,7.97
2022-11-30T16:28:03.789Z,7.63
2022-11-30T16:30:32.793Z,7.63
2022-11-30T16:33:01.261Z,7.10
2022-11-30T16:35:38.394Z,7.50
2022-11-30T16:38:08.309Z,7.10
2022-11-30T16:40:39.146Z,7.03
2022-11-30T16:43:08.011Z,7.10
2022-11-30T16:45:38.039Z,7.00
2022-11-30T16:48:07.655Z,5.90
2022-11-30T16:50:36.073Z,6.03
2022-11-30T16:53:05.775Z,6.50
2022-11-30T16:55:37.859Z,6.20
2022-11-30T16:58:07.226Z,6.90
2022-11-30T17:00:36.375Z,6.60
2022-11-30T17:03:09.324Z,6.70
2022-11-30T17:05:38.182Z,6.40
2022-11-30T17:08:07.177Z,6.10
2022-11-30T17:10:38.409Z,6.43
2022-11-30T17:13:07.334Z,5.87
2022-11-30T17:15:35.775Z,6.30
2022-11-30T17:18:04.623Z,6.47
2022-11-30T17:20:33.083Z,7.90
2022-11-30T17:23:01.688Z,5.50
2022-11-30T17:25:30.309Z,5.77
2022-11-30T17:28:00.826Z,6.47
2022-11-30T17:30:29.463Z,5.67
2022-11-30T17:32:58.260Z,5.30
2022-11-30T17:35:26.709Z,5.20
2022-11-30T17:37:55.699Z,5.70
2022-11-30T17:40:24.211Z,6.20
2022-11-30T17:42:52.588Z,5.60
2022-11-30T17:45:22.567Z,5.90
2022-11-30T17:47:51.235Z,5.80
2022-11-30T17:50:19.719Z,5.53
2022-11-30T17:52:49.475Z,5.40
2022-11-30T17:55:18.884Z,5.23
2022-11-30T17:57:47.761Z,5.27
2022-11-30T18:00:17.208Z,4.83
2022-11-30T18:02:50.800Z,5.00
2022-11-30T18:05:19.517Z,4.43
2022-11-30T18:07:49.029Z,5.03
2022-11-30T18:10:17.804Z,5.33
2022-11-30T18:12:46.421Z,6.10
2022-11-30T18:15:15.088Z,4.77
2022-11-30T18:17:43.566Z,5.60
2022-11-30T18:20:14.186Z,4.77
2022-11-30T18:22:42.711Z,5.23
2022-11-30T18:25:11.348Z,5.30
2022-11-30T18:27:39.685Z,5.37
2022-11-30T18:30:10.381Z,4.70
2022-11-30T18:32:39.111Z,4.97
2022-11-30T18:35:08.820Z,5.30
2022-11-30T18:37:38.889Z,5.47
2022-11-30T18:40:08.781Z,4.47
2022-11-30T18:42:37.403Z,4.80
2022-11-30T18:45:06.883Z,4.47
2022-11-30T18:47:35.375Z,4.20
2022-11-30T18:50:05.317Z,4.93
2022-11-30T18:52:34.008Z,4.80
2022-11-30T18:55:04.369Z,5.37
2022-11-30T18:57:32.825Z,4.50
2022-11-30T19:00:01.417Z,4.33
2022-11-30T19:02:30.117Z,4.60
2022-11-30T19:04:58.683Z,5.50
2022-11-30T19:07:27.225Z,4.33
2022-11-30T19:09:56.445Z,5.77
2022-11-30T19:12:26.264Z,5.30
2022-11-30T19:14:55.014Z,4.40
2022-11-30T19:17:23.665Z,4.60
2022-11-30T19:19:52.159Z,5.50
2022-11-30T19:22:20.910Z,4.67
2022-11-30T19:24:49.600Z,6.17
2022-11-30T19:27:18.590Z,5.20
2022-11-30T19:29:48.679Z,5.60
2022-11-30T19:32:17.446Z,4.67
2022-11-30T19:34:46.203Z,3.70
2022-11-30T19:37:14.962Z,5.30
2022-11-30T19:39:43.462Z,4.90
2022-11-30T19:42:12.267Z,4.47
2022-11-30T19:44:40.732Z,4.70
2022-11-30T19:47:10.581Z,5.83
2022-11-30T19:49:39.088Z,5.50
2022-11-30T19:52:07.701Z,4.97
2022-11-30T19:54:36.304Z,4.40
2022-11-30T19:57:04.864Z,5.40
2022-11-30T19:59:33.298Z,4.40
2022-11-30T20:02:01.965Z,5.67
2022-11-30T20:04:32.037Z,3.97
2022-11-30T20:07:02.102Z,5.60
2022-11-30T20:09:31.409Z,4.87
2022-11-30T20:11:59.988Z,5.13
2022-11-30T20:14:28.667Z,5.87
2022-11-30T20:16:57.411Z,4.80
2022-11-30T20:19:25.935Z,4.23
2022-11-30T20:21:55.944Z,4.97
2022-11-30T20:24:24.406Z,6.60
2022-11-30T20:26:52.946Z,5.17
2022-11-30T20:29:21.504Z,5.50
2022-11-30T20:31:51.106Z,4.83
2022-11-30T20:34:19.722Z,5.20
2022-11-30T20:36:48.491Z,4.90
2022-11-30T20:39:18.403Z,5.00
2022-11-30T20:41:47.144Z,5.47
2022-11-30T20:44:17.116Z,4.60
2022-11-30T20:46:45.974Z,5.60
2022-11-30T20:49:17.613Z,5.00
2022-11-30T20:51:47.005Z,5.27
2022-11-30T20:54:17.845Z,5.20
2022-11-30T20:56:50.102Z,5.63
2022-11-30T20:59:23.954Z,4.87
2022-11-30T21:01:53.396Z,6.23
2022-11-30T21:04:22.684Z,5.10
2022-11-30T21:06:51.551Z,5.43
2022-11-30T21:09:21.658Z,5.40
2022-11-30T21:11:51.355Z,4.90
2022-11-30T21:14:20.505Z,6.17
2022-11-30T21:16:49.359Z,5.10
2022-11-30T21:19:19.130Z,4.80
2022-11-30T21:21:47.733Z,5.47
2022-11-30T21:24:16.313Z,5.70
2022-11-30T21:26:46.295Z,4.67
2022-11-30T21:29:16.558Z,5.33
2022-11-30T21:31:46.020Z,5.10
2022-11-30T21:34:15.489Z,5.63
2022-11-30T21:36:43.992Z,5.30
2022-11-30T21:39:15.448Z,5.60
2022-11-30T21:41:45.545Z,5.50
2022-11-30T21:44:15.730Z,5.60
2022-11-30T21:46:46.501Z,4.53
2022-11-30T21:49:16.359Z,5.60
2022-11-30T21:51:45.288Z,5.37
2022-11-30T21:54:14.381Z,6.30
2022-11-30T21:56:44.812Z,5.63
2022-11-30T21:59:15.808Z,5.60
2022-11-30T22:01:45.535Z,5.80
2022-11-30T22:04:15.506Z,5.10
2022-11-30T22:06:44.696Z,6.70
2022-11-30T22:09:15.004Z,6.00
2022-11-30T22:11:45.281Z,6.07
2022-11-30T22:14:17.366Z,5.70
2022-11-30T22:16:46.296Z,6.80
2022-11-30T22:19:15.542Z,4.60
2022-11-30T22:21:49.769Z,5.90
2022-11-30T22:24:19.373Z,5.37
2022-11-30T22:26:49.286Z,5.40
2022-11-30T22:29:20.921Z,5.20
2022-11-30T22:31:51.468Z,9.07
2022-11-30T22:34:20.652Z,6.20
2022-11-30T22:36:49.204Z,4.97
2022-11-30T22:39:20.190Z,4.73
2022-11-30T22:41:55.079Z,5.70
2022-11-30T22:44:26.636Z,5.60
2022-11-30T22:46:55.799Z,6.10
2022-11-30T22:49:24.657Z,5.27
2022-11-30T22:51:53.306Z,5.73
2022-11-30T22:54:22.037Z,6.43
2022-11-30T22:56:50.526Z,5.87
2022-11-30T22:59:19.084Z,6.40
2022-11-30T23:01:51.644Z,5.83
2022-11-30T23:04:22.984Z,5.40
2022-11-30T23:06:51.979Z,5.60
2022-11-30T23:09:22.648Z,5.10
2022-11-30T23:11:52.295Z,5.63
2022-11-30T23:14:20.966Z,5.63
2022-11-30T23:16:50.890Z,6.00
2022-11-30T23:19:19.380Z,5.27
2022-11-30T23:21:49.985Z,6.00
2022-11-30T23:24:21.544Z,5.93
2022-11-30T23:26:50.423Z,5.60
2022-11-30T23:29:19.406Z,6.47
2022-11-30T23:31:49.099Z,5.80
2022-11-30T23:34:21.647Z,5.87
2022-11-30T23:36:51.212Z,5.93
2022-11-30T23:39:21.672Z,5.50
2022-11-30T23:41:50.289Z,5.50
2022-11-30T23:44:20.797Z,4.93
2022-11-30T23:46:49.801Z,5.20
2022-11-30T23:49:19.829Z,6.50
2022-11-30T23:51:48.861Z,5.10
2022-11-30T23:54:17.364Z,5.03
2022-11-30T23:56:45.829Z,5.00
2022-11-30T23:59:14.228Z,6.00
